sensor_id;sensor_type;location;lat;lon;timestamp;P1;durP1;ratioP1;P2;durP2;ratioP2
15502;SDS011;7853;52.186;5.948;2023-05-19T00:03:07;5.83;;;2.96;;
15502;SDS011;7853;52.186;5.948;2023-05-19T00:03:07;5.76;;;2.84;;
15502;SDS011;7853;52.186;5.948;2023-05-19T00:03:57;5.23;;;2.89;;
15502;SDS011;7853;52.186;5.948;2023-05-19T00:04:49;5.23;;;3.04;;
15502;SDS011;7853;52.186;5.948;2023-05-19T00:05:41;5.06;;;2.84;;
15502;SDS011;7853;52.186;5.948;2023-05-19T00:06:37;6.19;;;2.92;;
15502;SDS011;7853;52.186;5.948;2023-05-19T00:07:36;5.46;;;2.72;;
15502;SDS011;7853;52.186;5.948;2023-05-19T00:08:34;7.23;;;2.97;;
15502;SDS011;7853;52.186;5.948;2023-05-19T00:09:34;4.94;;;2.86;;
15502;SDS011;7853;52.186;5.948;2023-05-19T00:10:33;5.19;;;2.81;;
15502;SDS011;7853;52.186;5.948;2023-05-19T00:11:35;5.46;;;2.94;;
15502;SDS011;7853;52.186;5.948;2023-05-19T00:12:33;5.33;;;2.88;;
15502;SDS011;7853;52.186;5.948;2023-05-19T00:13:33;5.49;;;2.94;;
15502;SDS011;7853;52.186;5.948;2023-05-19T00:14:33;6.60;;;2.83;;
15502;SDS011;7853;52.186;5.948;2023-05-19T00:15:34;7.78;;;3.32;;
15502;SDS011;7853;52.186;5.948;2023-05-19T00:16:33;4.40;;;2.94;;
15502;SDS011;7853;52.186;5.948;2023-05-19T00:17:33;5.46;;;2.92;;
15502;SDS011;7853;52.186;5.948;2023-05-19T00:18:33;5.51;;;2.79;;
15502;SDS011;7853;52.186;5.948;2023-05-19T00:19:33;5.24;;;2.92;;
15502;SDS011;7853;52.186;5.948;2023-05-19T00:20:34;5.91;;;3.05;;
15502;SDS011;7853;52.186;5.948;2023-05-19T00:21:34;6.05;;;2.90;;
15502;SDS011;7853;52.186;5.948;2023-05-19T00:22:34;6.34;;;2.88;;
15502;SDS011;7853;52.186;5.948;2023-05-19T00:23:34;4.43;;;2.94;;
15502;SDS011;7853;52.186;5.948;2023-05-19T00:24:34;4.53;;;2.77;;
15502;SDS011;7853;52.186;5.948;2023-05-19T00:25:34;5.85;;;2.91;;
15502;SDS011;7853;52.186;5.948;2023-05-19T00:26:34;5.90;;;3.12;;
15502;SDS011;7853;52.186;5.948;2023-05-19T00:27:34;4.04;;;2.90;;
15502;SDS011;7853;52.186;5.948;2023-05-19T00:28:35;5.93;;;2.90;;
15502;SDS011;7853;52.186;5.948;2023-05-19T00:29:33;5.48;;;2.94;;
15502;SDS011;7853;52.186;5.948;2023-05-19T00:30:33;4.74;;;2.84;;
15502;SDS011;7853;52.186;5.948;2023-05-19T00:31:34;4.69;;;3.02;;
15502;SDS011;7853;52.186;5.948;2023-05-19T00:32:34;5.42;;;3.03;;
15502;SDS011;7853;52.186;5.948;2023-05-19T00:33:34;5.08;;;2.86;;
15502;SDS011;7853;52.186;5.948;2023-05-19T00:34:34;7.32;;;3.03;;
15502;SDS011;7853;52.186;5.948;2023-05-19T00:35:34;6.17;;;3.20;;
15502;SDS011;7853;52.186;5.948;2023-05-19T00:36:34;6.18;;;3.21;;
15502;SDS011;7853;52.186;5.948;2023-05-19T00:37:34;4.74;;;2.91;;
15502;SDS011;7853;52.186;5.948;2023-05-19T00:38:34;5.49;;;3.42;;
15502;SDS011;7853;52.186;5.948;2023-05-19T00:39:34;4.27;;;2.86;;
15502;SDS011;7853;52.186;5.948;2023-05-19T00:40:34;6.29;;;2.88;;
15502;SDS011;7853;52.186;5.948;2023-05-19T00:41:34;5.96;;;3.03;;
15502;SDS011;7853;52.186;5.948;2023-05-19T00:42:34;4.78;;;2.95;;
15502;SDS011;7853;52.186;5.948;2023-05-19T00:43:34;5.11;;;2.79;;
15502;SDS011;7853;52.186;5.948;2023-05-19T00:44:34;5.93;;;2.90;;
15502;SDS011;7853;52.186;5.948;2023-05-19T00:45:34;5.41;;;2.88;;
15502;SDS011;7853;52.186;5.948;2023-05-19T00:46:34;5.19;;;3.00;;
15502;SDS011;7853;52.186;5.948;2023-05-19T00:47:34;5.99;;;2.77;;
15502;SDS011;7853;52.186;5.948;2023-05-19T00:48:34;6.74;;;2.99;;
15502;SDS011;7853;52.186;5.948;2023-05-19T00:49:34;5.49;;;2.72;;
15502;SDS011;7853;52.186;5.948;2023-05-19T00:50:34;4.83;;;2.72;;
15502;SDS011;7853;52.186;5.948;2023-05-19T00:51:34;5.44;;;2.73;;
15502;SDS011;7853;52.186;5.948;2023-05-19T00:52:34;4.31;;;2.69;;
15502;SDS011;7853;52.186;5.948;2023-05-19T00:53:34;6.45;;;2.96;;
15502;SDS011;7853;52.186;5.948;2023-05-19T00:54:34;5.69;;;2.85;;
15502;SDS011;7853;52.186;5.948;2023-05-19T00:55:35;5.46;;;2.98;;
15502;SDS011;7853;52.186;5.948;2023-05-19T00:56:34;6.29;;;2.95;;
15502;SDS011;7853;52.186;5.948;2023-05-19T00:57:34;6.77;;;3.16;;
15502;SDS011;7853;52.186;5.948;2023-05-19T00:58:34;5.63;;;2.96;;
15502;SDS011;7853;52.186;5.948;2023-05-19T00:59:34;5.07;;;2.58;;
15502;SDS011;7853;52.186;5.948;2023-05-19T01:00:34;4.80;;;2.85;;
15502;SDS011;7853;52.186;5.948;2023-05-19T01:01:34;4.78;;;2.86;;
15502;SDS011;7853;52.186;5.948;2023-05-19T01:02:35;5.84;;;2.86;;
15502;SDS011;7853;52.186;5.948;2023-05-19T01:03:34;6.11;;;2.90;;
15502;SDS011;7853;52.186;5.948;2023-05-19T01:04:34;4.75;;;2.60;;
15502;SDS011;7853;52.186;5.948;2023-05-19T01:05:34;5.46;;;2.79;;
15502;SDS011;7853;52.186;5.948;2023-05-19T01:06:34;6.83;;;3.11;;
15502;SDS011;7853;52.186;5.948;2023-05-19T01:07:34;5.51;;;2.78;;
15502;SDS011;7853;52.186;5.948;2023-05-19T01:08:35;5.06;;;3.00;;
15502;SDS011;7853;52.186;5.948;2023-05-19T01:09:34;6.23;;;3.09;;
15502;SDS011;7853;52.186;5.948;2023-05-19T01:10:35;4.56;;;2.61;;
15502;SDS011;7853;52.186;5.948;2023-05-19T01:11:34;4.47;;;2.63;;
15502;SDS011;7853;52.186;5.948;2023-05-19T01:12:34;4.27;;;2.82;;
15502;SDS011;7853;52.186;5.948;2023-05-19T01:13:35;5.50;;;3.09;;
15502;SDS011;7853;52.186;5.948;2023-05-19T01:14:34;5.27;;;3.00;;
15502;SDS011;7853;52.186;5.948;2023-05-19T01:16:53;6.52;;;2.87;;
15502;SDS011;7853;52.186;5.948;2023-05-19T01:17:43;5.01;;;2.82;;
15502;SDS011;7853;52.186;5.948;2023-05-19T01:18:41;4.99;;;2.73;;
15502;SDS011;7853;52.186;5.948;2023-05-19T01:19:41;4.59;;;2.95;;
15502;SDS011;7853;52.186;5.948;2023-05-19T01:20:53;6.17;;;2.76;;
15502;SDS011;7853;52.186;5.948;2023-05-19T01:21:51;5.62;;;2.78;;
15502;SDS011;7853;52.186;5.948;2023-05-19T01:23:04;7.34;;;2.93;;
15502;SDS011;7853;52.186;5.948;2023-05-19T01:23:45;5.12;;;3.06;;
15502;SDS011;7853;52.186;5.948;2023-05-19T01:26:10;6.79;;;2.94;;
15502;SDS011;7853;52.186;5.948;2023-05-19T01:27:11;5.90;;;2.70;;
15502;SDS011;7853;52.186;5.948;2023-05-19T01:28:06;4.96;;;2.92;;
15502;SDS011;7853;52.186;5.948;2023-05-19T01:29:25;4.47;;;2.68;;
15502;SDS011;7853;52.186;5.948;2023-05-19T01:30:27;5.33;;;2.95;;
15502;SDS011;7853;52.186;5.948;2023-05-19T01:31:29;4.86;;;2.89;;
15502;SDS011;7853;52.186;5.948;2023-05-19T01:32:30;6.37;;;2.96;;
15502;SDS011;7853;52.186;5.948;2023-05-19T01:33:30;4.37;;;2.61;;
15502;SDS011;7853;52.186;5.948;2023-05-19T01:34:31;5.36;;;3.06;;
15502;SDS011;7853;52.186;5.948;2023-05-19T01:35:31;5.54;;;2.89;;
15502;SDS011;7853;52.186;5.948;2023-05-19T01:36:31;6.06;;;3.26;;
15502;SDS011;7853;52.186;5.948;2023-05-19T01:37:31;6.39;;;2.81;;
15502;SDS011;7853;52.186;5.948;2023-05-19T01:38:32;5.15;;;2.90;;
15502;SDS011;7853;52.186;5.948;2023-05-19T01:39:32;5.51;;;3.01;;
15502;SDS011;7853;52.186;5.948;2023-05-19T01:40:32;5.27;;;2.86;;
15502;SDS011;7853;52.186;5.948;2023-05-19T01:41:32;5.40;;;2.82;;
15502;SDS011;7853;52.186;5.948;2023-05-19T01:42:32;5.08;;;2.76;;
15502;SDS011;7853;52.186;5.948;2023-05-19T01:43:32;4.99;;;2.86;;
15502;SDS011;7853;52.186;5.948;2023-05-19T01:44:32;6.38;;;3.05;;
15502;SDS011;7853;52.186;5.948;2023-05-19T01:45:32;5.58;;;2.85;;
15502;SDS011;7853;52.186;5.948;2023-05-19T01:46:33;5.61;;;2.85;;
15502;SDS011;7853;52.186;5.948;2023-05-19T01:47:33;5.15;;;2.79;;
15502;SDS011;7853;52.186;5.948;2023-05-19T01:48:33;5.99;;;2.92;;
15502;SDS011;7853;52.186;5.948;2023-05-19T01:49:33;5.54;;;2.83;;
15502;SDS011;7853;52.186;5.948;2023-05-19T01:50:33;5.58;;;2.81;;
15502;SDS011;7853;52.186;5.948;2023-05-19T01:51:33;5.10;;;2.88;;
15502;SDS011;7853;52.186;5.948;2023-05-19T01:52:33;4.61;;;2.92;;
15502;SDS011;7853;52.186;5.948;2023-05-19T01:53:33;6.72;;;2.88;;
15502;SDS011;7853;52.186;5.948;2023-05-19T01:54:33;5.29;;;2.84;;
15502;SDS011;7853;52.186;5.948;2023-05-19T01:55:33;4.68;;;2.64;;
15502;SDS011;7853;52.186;5.948;2023-05-19T01:56:37;6.67;;;3.00;;
15502;SDS011;7853;52.186;5.948;2023-05-19T01:57:35;5.55;;;2.94;;
15502;SDS011;7853;52.186;5.948;2023-05-19T01:58:35;6.01;;;2.98;;
15502;SDS011;7853;52.186;5.948;2023-05-19T01:59:36;5.84;;;3.12;;
15502;SDS011;7853;52.186;5.948;2023-05-19T02:00:37;6.26;;;2.78;;
15502;SDS011;7853;52.186;5.948;2023-05-19T02:01:36;5.61;;;2.86;;
15502;SDS011;7853;52.186;5.948;2023-05-19T02:02:36;5.62;;;2.99;;
15502;SDS011;7853;52.186;5.948;2023-05-19T02:03:41;5.47;;;3.06;;
15502;SDS011;7853;52.186;5.948;2023-05-19T02:04:35;6.37;;;2.98;;
15502;SDS011;7853;52.186;5.948;2023-05-19T02:05:35;6.11;;;3.03;;
15502;SDS011;7853;52.186;5.948;2023-05-19T02:06:35;6.78;;;2.76;;
15502;SDS011;7853;52.186;5.948;2023-05-19T02:07:35;5.87;;;3.02;;
15502;SDS011;7853;52.186;5.948;2023-05-19T02:08:36;5.52;;;2.95;;
15502;SDS011;7853;52.186;5.948;2023-05-19T02:09:37;6.82;;;2.86;;
15502;SDS011;7853;52.186;5.948;2023-05-19T02:10:34;4.96;;;2.93;;
15502;SDS011;7853;52.186;5.948;2023-05-19T02:11:35;6.93;;;3.13;;
15502;SDS011;7853;52.186;5.948;2023-05-19T02:12:34;4.68;;;2.86;;
15502;SDS011;7853;52.186;5.948;2023-05-19T02:13:35;4.73;;;2.84;;
15502;SDS011;7853;52.186;5.948;2023-05-19T02:14:36;5.91;;;2.94;;
15502;SDS011;7853;52.186;5.948;2023-05-19T02:15:36;4.57;;;2.91;;
15502;SDS011;7853;52.186;5.948;2023-05-19T02:16:34;5.26;;;2.87;;
15502;SDS011;7853;52.186;5.948;2023-05-19T02:17:34;5.71;;;2.96;;
15502;SDS011;7853;52.186;5.948;2023-05-19T02:18:34;5.73;;;3.05;;
15502;SDS011;7853;52.186;5.948;2023-05-19T02:19:35;6.15;;;3.22;;
15502;SDS011;7853;52.186;5.948;2023-05-19T02:20:34;4.51;;;2.90;;
15502;SDS011;7853;52.186;5.948;2023-05-19T02:21:34;6.41;;;2.82;;
15502;SDS011;7853;52.186;5.948;2023-05-19T02:22:34;5.73;;;2.97;;
15502;SDS011;7853;52.186;5.948;2023-05-19T02:23:34;5.30;;;2.95;;
15502;SDS011;7853;52.186;5.948;2023-05-19T02:24:34;6.05;;;3.03;;
15502;SDS011;7853;52.186;5.948;2023-05-19T02:25:34;5.19;;;2.72;;
15502;SDS011;7853;52.186;5.948;2023-05-19T02:26:34;4.73;;;2.83;;
15502;SDS011;7853;52.186;5.948;2023-05-19T02:27:35;6.28;;;3.04;;
15502;SDS011;7853;52.186;5.948;2023-05-19T02:28:34;5.85;;;3.15;;
15502;SDS011;7853;52.186;5.948;2023-05-19T02:29:34;4.66;;;2.71;;
15502;SDS011;7853;52.186;5.948;2023-05-19T02:30:34;4.44;;;2.80;;
15502;SDS011;7853;52.186;5.948;2023-05-19T02:31:34;6.97;;;3.04;;
15502;SDS011;7853;52.186;5.948;2023-05-19T02:32:34;5.77;;;3.07;;
15502;SDS011;7853;52.186;5.948;2023-05-19T02:33:34;5.03;;;2.68;;
15502;SDS011;7853;52.186;5.948;2023-05-19T02:34:34;5.51;;;2.83;;
15502;SDS011;7853;52.186;5.948;2023-05-19T02:35:34;6.40;;;2.90;;
15502;SDS011;7853;52.186;5.948;2023-05-19T02:36:34;4.19;;;2.88;;
15502;SDS011;7853;52.186;5.948;2023-05-19T02:37:34;5.23;;;3.13;;
15502;SDS011;7853;52.186;5.948;2023-05-19T02:38:34;5.21;;;2.93;;
15502;SDS011;7853;52.186;5.948;2023-05-19T02:39:34;5.45;;;2.95;;
15502;SDS011;7853;52.186;5.948;2023-05-19T02:40:34;5.73;;;2.89;;
15502;SDS011;7853;52.186;5.948;2023-05-19T02:41:34;4.54;;;2.85;;
15502;SDS011;7853;52.186;5.948;2023-05-19T02:42:34;4.08;;;2.84;;
15502;SDS011;7853;52.186;5.948;2023-05-19T02:43:34;6.54;;;3.14;;
15502;SDS011;7853;52.186;5.948;2023-05-19T02:44:34;6.26;;;3.03;;
15502;SDS011;7853;52.186;5.948;2023-05-19T02:45:34;5.83;;;3.24;;
15502;SDS011;7853;52.186;5.948;2023-05-19T02:46:34;4.62;;;2.91;;
15502;SDS011;7853;52.186;5.948;2023-05-19T02:47:34;5.16;;;3.11;;
15502;SDS011;7853;52.186;5.948;2023-05-19T02:48:34;6.41;;;2.89;;
15502;SDS011;7853;52.186;5.948;2023-05-19T02:49:34;5.06;;;2.93;;
15502;SDS011;7853;52.186;5.948;2023-05-19T02:50:34;5.00;;;2.90;;
15502;SDS011;7853;52.186;5.948;2023-05-19T02:51:34;5.07;;;3.37;;
15502;SDS011;7853;52.186;5.948;2023-05-19T02:52:34;4.59;;;3.02;;
15502;SDS011;7853;52.186;5.948;2023-05-19T02:53:34;4.61;;;2.84;;
15502;SDS011;7853;52.186;5.948;2023-05-19T02:54:34;5.69;;;2.99;;
15502;SDS011;7853;52.186;5.948;2023-05-19T02:55:34;4.30;;;2.61;;
15502;SDS011;7853;52.186;5.948;2023-05-19T02:56:34;5.13;;;3.13;;
15502;SDS011;7853;52.186;5.948;2023-05-19T02:57:34;5.78;;;3.15;;
15502;SDS011;7853;52.186;5.948;2023-05-19T02:58:34;5.58;;;2.98;;
15502;SDS011;7853;52.186;5.948;2023-05-19T02:59:34;5.31;;;3.21;;
15502;SDS011;7853;52.186;5.948;2023-05-19T03:00:34;5.94;;;3.09;;
15502;SDS011;7853;52.186;5.948;2023-05-19T03:01:34;4.84;;;2.74;;
15502;SDS011;7853;52.186;5.948;2023-05-19T03:02:34;4.51;;;2.79;;
15502;SDS011;7853;52.186;5.948;2023-05-19T03:03:34;5.20;;;2.87;;
15502;SDS011;7853;52.186;5.948;2023-05-19T03:04:34;5.87;;;2.88;;
15502;SDS011;7853;52.186;5.948;2023-05-19T03:05:34;5.99;;;2.94;;
15502;SDS011;7853;52.186;5.948;2023-05-19T03:06:34;5.14;;;2.88;;
15502;SDS011;7853;52.186;5.948;2023-05-19T03:07:34;5.38;;;3.07;;
15502;SDS011;7853;52.186;5.948;2023-05-19T03:08:35;5.66;;;3.18;;
15502;SDS011;7853;52.186;5.948;2023-05-19T03:09:35;5.35;;;3.01;;
15502;SDS011;7853;52.186;5.948;2023-05-19T03:10:34;6.23;;;3.06;;
15502;SDS011;7853;52.186;5.948;2023-05-19T03:11:34;4.52;;;3.12;;
15502;SDS011;7853;52.186;5.948;2023-05-19T03:12:34;5.17;;;2.90;;
15502;SDS011;7853;52.186;5.948;2023-05-19T03:13:35;5.39;;;3.01;;
15502;SDS011;7853;52.186;5.948;2023-05-19T03:14:35;4.94;;;3.09;;
15502;SDS011;7853;52.186;5.948;2023-05-19T03:15:34;5.75;;;2.85;;
15502;SDS011;7853;52.186;5.948;2023-05-19T03:16:34;4.65;;;2.91;;
15502;SDS011;7853;52.186;5.948;2023-05-19T03:17:34;5.45;;;2.89;;
15502;SDS011;7853;52.186;5.948;2023-05-19T03:18:34;5.33;;;3.15;;
15502;SDS011;7853;52.186;5.948;2023-05-19T03:19:34;4.94;;;3.07;;
15502;SDS011;7853;52.186;5.948;2023-05-19T03:20:34;4.37;;;3.05;;
15502;SDS011;7853;52.186;5.948;2023-05-19T03:21:34;4.41;;;2.71;;
15502;SDS011;7853;52.186;5.948;2023-05-19T03:22:34;5.70;;;3.14;;
15502;SDS011;7853;52.186;5.948;2023-05-19T03:23:34;4.08;;;2.84;;
15502;SDS011;7853;52.186;5.948;2023-05-19T03:24:34;5.92;;;3.08;;
15502;SDS011;7853;52.186;5.948;2023-05-19T03:25:34;6.55;;;3.20;;
15502;SDS011;7853;52.186;5.948;2023-05-19T03:26:34;5.57;;;3.10;;
15502;SDS011;7853;52.186;5.948;2023-05-19T03:27:34;4.27;;;2.87;;
15502;SDS011;7853;52.186;5.948;2023-05-19T03:28:34;6.10;;;3.07;;
15502;SDS011;7853;52.186;5.948;2023-05-19T03:29:34;5.76;;;3.24;;
15502;SDS011;7853;52.186;5.948;2023-05-19T03:30:34;4.45;;;3.06;;
15502;SDS011;7853;52.186;5.948;2023-05-19T03:31:34;5.17;;;3.20;;
15502;SDS011;7853;52.186;5.948;2023-05-19T03:32:34;5.65;;;2.98;;
15502;SDS011;7853;52.186;5.948;2023-05-19T03:33:34;6.43;;;3.28;;
15502;SDS011;7853;52.186;5.948;2023-05-19T03:34:34;5.59;;;3.19;;
15502;SDS011;7853;52.186;5.948;2023-05-19T03:35:34;4.45;;;2.87;;
15502;SDS011;7853;52.186;5.948;2023-05-19T03:36:35;4.51;;;2.96;;
15502;SDS011;7853;52.186;5.948;2023-05-19T03:37:34;4.82;;;3.08;;
15502;SDS011;7853;52.186;5.948;2023-05-19T03:38:34;5.54;;;2.97;;
15502;SDS011;7853;52.186;5.948;2023-05-19T03:39:34;5.34;;;2.92;;
15502;SDS011;7853;52.186;5.948;2023-05-19T03:40:35;6.87;;;3.08;;
15502;SDS011;7853;52.186;5.948;2023-05-19T03:41:34;6.04;;;3.14;;
15502;SDS011;7853;52.186;5.948;2023-05-19T03:42:34;5.50;;;2.89;;
15502;SDS011;7853;52.186;5.948;2023-05-19T03:43:34;6.25;;;3.11;;
15502;SDS011;7853;52.186;5.948;2023-05-19T03:44:34;5.81;;;3.04;;
15502;SDS011;7853;52.186;5.948;2023-05-19T03:45:34;6.36;;;3.08;;
15502;SDS011;7853;52.186;5.948;2023-05-19T03:46:34;5.30;;;2.99;;
15502;SDS011;7853;52.186;5.948;2023-05-19T03:47:34;4.88;;;3.26;;
15502;SDS011;7853;52.186;5.948;2023-05-19T03:48:34;5.51;;;3.12;;
15502;SDS011;7853;52.186;5.948;2023-05-19T03:49:34;4.75;;;2.89;;
15502;SDS011;7853;52.186;5.948;2023-05-19T03:50:34;5.01;;;2.92;;
15502;SDS011;7853;52.186;5.948;2023-05-19T03:51:34;4.92;;;3.12;;
15502;SDS011;7853;52.186;5.948;2023-05-19T03:52:34;4.92;;;2.85;;
15502;SDS011;7853;52.186;5.948;2023-05-19T03:53:34;5.31;;;3.08;;
15502;SDS011;7853;52.186;5.948;2023-05-19T03:54:34;6.15;;;3.28;;
15502;SDS011;7853;52.186;5.948;2023-05-19T03:55:35;5.49;;;2.92;;
15502;SDS011;7853;52.186;5.948;2023-05-19T03:56:37;6.40;;;3.19;;
15502;SDS011;7853;52.186;5.948;2023-05-19T03:57:34;5.98;;;3.19;;
15502;SDS011;7853;52.186;5.948;2023-05-19T03:58:34;5.34;;;2.90;;
15502;SDS011;7853;52.186;5.948;2023-05-19T03:59:34;4.96;;;3.16;;
15502;SDS011;7853;52.186;5.948;2023-05-19T04:00:35;5.22;;;3.12;;
15502;SDS011;7853;52.186;5.948;2023-05-19T04:01:35;6.34;;;3.20;;
15502;SDS011;7853;52.186;5.948;2023-05-19T04:02:34;5.46;;;3.07;;
15502;SDS011;7853;52.186;5.948;2023-05-19T04:03:35;5.74;;;3.27;;
15502;SDS011;7853;52.186;5.948;2023-05-19T04:04:34;4.51;;;2.92;;
15502;SDS011;7853;52.186;5.948;2023-05-19T04:05:35;4.94;;;2.89;;
15502;SDS011;7853;52.186;5.948;2023-05-19T04:06:34;4.78;;;3.06;;
15502;SDS011;7853;52.186;5.948;2023-05-19T04:07:35;5.59;;;2.92;;
15502;SDS011;7853;52.186;5.948;2023-05-19T04:08:34;4.79;;;3.13;;
15502;SDS011;7853;52.186;5.948;2023-05-19T04:09:35;4.37;;;3.02;;
15502;SDS011;7853;52.186;5.948;2023-05-19T04:10:34;6.60;;;3.48;;
15502;SDS011;7853;52.186;5.948;2023-05-19T04:11:34;5.82;;;3.26;;
15502;SDS011;7853;52.186;5.948;2023-05-19T04:12:34;5.33;;;3.46;;
15502;SDS011;7853;52.186;5.948;2023-05-19T04:13:34;5.50;;;3.16;;
15502;SDS011;7853;52.186;5.948;2023-05-19T04:14:35;5.22;;;3.16;;
15502;SDS011;7853;52.186;5.948;2023-05-19T04:15:34;6.34;;;3.46;;
15502;SDS011;7853;52.186;5.948;2023-05-19T04:16:34;5.70;;;3.22;;
15502;SDS011;7853;52.186;5.948;2023-05-19T04:17:34;5.06;;;3.11;;
15502;SDS011;7853;52.186;5.948;2023-05-19T04:18:34;6.87;;;3.29;;
15502;SDS011;7853;52.186;5.948;2023-05-19T04:19:34;5.98;;;3.30;;
15502;SDS011;7853;52.186;5.948;2023-05-19T04:20:34;4.98;;;3.44;;
15502;SDS011;7853;52.186;5.948;2023-05-19T04:21:34;6.52;;;3.25;;
15502;SDS011;7853;52.186;5.948;2023-05-19T04:22:35;5.08;;;3.10;;
15502;SDS011;7853;52.186;5.948;2023-05-19T04:23:35;6.44;;;3.24;;
15502;SDS011;7853;52.186;5.948;2023-05-19T04:24:35;5.38;;;3.43;;
15502;SDS011;7853;52.186;5.948;2023-05-19T04:25:34;5.95;;;3.43;;
15502;SDS011;7853;52.186;5.948;2023-05-19T04:26:34;4.70;;;3.07;;
15502;SDS011;7853;52.186;5.948;2023-05-19T04:27:35;6.60;;;3.28;;
15502;SDS011;7853;52.186;5.948;2023-05-19T04:28:34;4.87;;;3.05;;
15502;SDS011;7853;52.186;5.948;2023-05-19T04:29:34;6.17;;;3.14;;
15502;SDS011;7853;52.186;5.948;2023-05-19T04:30:34;5.50;;;3.25;;
15502;SDS011;7853;52.186;5.948;2023-05-19T04:31:35;5.92;;;3.25;;
15502;SDS011;7853;52.186;5.948;2023-05-19T04:32:35;5.99;;;3.13;;
15502;SDS011;7853;52.186;5.948;2023-05-19T04:33:35;4.37;;;3.24;;
15502;SDS011;7853;52.186;5.948;2023-05-19T04:34:35;5.10;;;3.46;;
15502;SDS011;7853;52.186;5.948;2023-05-19T04:35:34;5.51;;;3.40;;
15502;SDS011;7853;52.186;5.948;2023-05-19T04:36:34;6.01;;;3.31;;
15502;SDS011;7853;52.186;5.948;2023-05-19T04:37:34;5.68;;;3.43;;
15502;SDS011;7853;52.186;5.948;2023-05-19T04:38:35;5.26;;;3.29;;
15502;SDS011;7853;52.186;5.948;2023-05-19T04:39:34;6.47;;;3.32;;
15502;SDS011;7853;52.186;5.948;2023-05-19T04:40:34;5.55;;;3.67;;
15502;SDS011;7853;52.186;5.948;2023-05-19T04:41:34;5.78;;;3.45;;
15502;SDS011;7853;52.186;5.948;2023-05-19T04:42:35;6.91;;;3.30;;
15502;SDS011;7853;52.186;5.948;2023-05-19T04:43:34;5.61;;;3.31;;
15502;SDS011;7853;52.186;5.948;2023-05-19T04:44:34;6.15;;;3.40;;
15502;SDS011;7853;52.186;5.948;2023-05-19T04:45:35;5.74;;;3.57;;
15502;SDS011;7853;52.186;5.948;2023-05-19T04:46:34;6.29;;;3.61;;
15502;SDS011;7853;52.186;5.948;2023-05-19T04:47:34;6.45;;;3.59;;
15502;SDS011;7853;52.186;5.948;2023-05-19T04:48:34;6.42;;;3.87;;
15502;SDS011;7853;52.186;5.948;2023-05-19T04:49:35;6.05;;;3.68;;
15502;SDS011;7853;52.186;5.948;2023-05-19T04:50:34;6.48;;;3.37;;
15502;SDS011;7853;52.186;5.948;2023-05-19T04:51:35;5.99;;;3.56;;
15502;SDS011;7853;52.186;5.948;2023-05-19T04:52:34;6.18;;;3.58;;
15502;SDS011;7853;52.186;5.948;2023-05-19T04:53:39;6.93;;;3.51;;
15502;SDS011;7853;52.186;5.948;2023-05-19T04:54:35;6.94;;;3.53;;
15502;SDS011;7853;52.186;5.948;2023-05-19T04:55:34;5.66;;;3.59;;
15502;SDS011;7853;52.186;5.948;2023-05-19T04:56:34;5.46;;;3.41;;
15502;SDS011;7853;52.186;5.948;2023-05-19T04:57:34;6.48;;;3.80;;
15502;SDS011;7853;52.186;5.948;2023-05-19T04:58:34;6.96;;;3.51;;
15502;SDS011;7853;52.186;5.948;2023-05-19T04:59:34;5.86;;;3.51;;
15502;SDS011;7853;52.186;5.948;2023-05-19T05:00:35;5.61;;;3.42;;
15502;SDS011;7853;52.186;5.948;2023-05-19T05:01:35;7.10;;;3.58;;
15502;SDS011;7853;52.186;5.948;2023-05-19T05:02:35;5.70;;;3.49;;
15502;SDS011;7853;52.186;5.948;2023-05-19T05:03:34;6.51;;;3.47;;
15502;SDS011;7853;52.186;5.948;2023-05-19T05:04:34;5.84;;;3.33;;
15502;SDS011;7853;52.186;5.948;2023-05-19T05:05:35;7.18;;;4.16;;
15502;SDS011;7853;52.186;5.948;2023-05-19T05:06:34;5.69;;;3.70;;
15502;SDS011;7853;52.186;5.948;2023-05-19T05:07:35;6.67;;;3.88;;
15502;SDS011;7853;52.186;5.948;2023-05-19T05:08:35;6.62;;;3.80;;
15502;SDS011;7853;52.186;5.948;2023-05-19T05:09:34;6.10;;;3.52;;
15502;SDS011;7853;52.186;5.948;2023-05-19T05:10:35;5.94;;;3.63;;
15502;SDS011;7853;52.186;5.948;2023-05-19T05:11:35;6.93;;;3.79;;
15502;SDS011;7853;52.186;5.948;2023-05-19T05:12:35;6.95;;;3.55;;
15502;SDS011;7853;52.186;5.948;2023-05-19T05:13:35;6.50;;;3.59;;
15502;SDS011;7853;52.186;5.948;2023-05-19T05:14:35;6.52;;;3.77;;
15502;SDS011;7853;52.186;5.948;2023-05-19T05:15:35;7.50;;;3.73;;
15502;SDS011;7853;52.186;5.948;2023-05-19T05:16:35;6.59;;;3.76;;
15502;SDS011;7853;52.186;5.948;2023-05-19T05:17:35;7.08;;;3.98;;
15502;SDS011;7853;52.186;5.948;2023-05-19T05:18:35;7.61;;;4.02;;
15502;SDS011;7853;52.186;5.948;2023-05-19T05:19:35;7.41;;;4.13;;
15502;SDS011;7853;52.186;5.948;2023-05-19T05:20:35;6.33;;;4.04;;
15502;SDS011;7853;52.186;5.948;2023-05-19T05:21:35;5.40;;;3.78;;
15502;SDS011;7853;52.186;5.948;2023-05-19T05:22:35;7.52;;;3.78;;
15502;SDS011;7853;52.186;5.948;2023-05-19T05:23:35;6.05;;;3.52;;
15502;SDS011;7853;52.186;5.948;2023-05-19T05:24:35;6.83;;;3.69;;
15502;SDS011;7853;52.186;5.948;2023-05-19T05:25:35;8.50;;;4.14;;
15502;SDS011;7853;52.186;5.948;2023-05-19T05:26:35;5.37;;;3.68;;
15502;SDS011;7853;52.186;5.948;2023-05-19T05:27:34;6.94;;;4.01;;
15502;SDS011;7853;52.186;5.948;2023-05-19T05:28:34;7.71;;;3.98;;
15502;SDS011;7853;52.186;5.948;2023-05-19T05:29:34;5.51;;;3.72;;
15502;SDS011;7853;52.186;5.948;2023-05-19T05:30:35;7.08;;;3.97;;
15502;SDS011;7853;52.186;5.948;2023-05-19T05:31:35;8.56;;;4.13;;
15502;SDS011;7853;52.186;5.948;2023-05-19T05:32:34;8.20;;;3.93;;
15502;SDS011;7853;52.186;5.948;2023-05-19T05:33:34;8.23;;;3.80;;
15502;SDS011;7853;52.186;5.948;2023-05-19T05:34:34;7.83;;;3.90;;
15502;SDS011;7853;52.186;5.948;2023-05-19T05:35:34;5.57;;;3.88;;
15502;SDS011;7853;52.186;5.948;2023-05-19T05:36:37;7.67;;;4.07;;
15502;SDS011;7853;52.186;5.948;2023-05-19T05:37:34;7.22;;;3.93;;
15502;SDS011;7853;52.186;5.948;2023-05-19T05:38:34;6.44;;;3.90;;
15502;SDS011;7853;52.186;5.948;2023-05-19T05:39:34;7.11;;;4.06;;
15502;SDS011;7853;52.186;5.948;2023-05-19T05:40:34;6.83;;;3.96;;
15502;SDS011;7853;52.186;5.948;2023-05-19T05:41:34;7.99;;;4.06;;
15502;SDS011;7853;52.186;5.948;2023-05-19T05:42:34;4.99;;;3.81;;
15502;SDS011;7853;52.186;5.948;2023-05-19T05:43:35;6.40;;;3.94;;
15502;SDS011;7853;52.186;5.948;2023-05-19T05:44:34;7.63;;;4.28;;
15502;SDS011;7853;52.186;5.948;2023-05-19T05:45:34;7.13;;;3.94;;
15502;SDS011;7853;52.186;5.948;2023-05-19T05:46:35;6.78;;;3.86;;
15502;SDS011;7853;52.186;5.948;2023-05-19T05:47:35;7.21;;;3.79;;
15502;SDS011;7853;52.186;5.948;2023-05-19T05:48:35;5.87;;;3.99;;
15502;SDS011;7853;52.186;5.948;2023-05-19T05:49:35;8.62;;;4.40;;
15502;SDS011;7853;52.186;5.948;2023-05-19T05:50:35;6.63;;;4.09;;
15502;SDS011;7853;52.186;5.948;2023-05-19T05:51:35;7.98;;;4.10;;
15502;SDS011;7853;52.186;5.948;2023-05-19T05:52:35;6.35;;;3.78;;
15502;SDS011;7853;52.186;5.948;2023-05-19T05:53:36;5.26;;;3.68;;
15502;SDS011;7853;52.186;5.948;2023-05-19T05:54:35;7.06;;;3.85;;
15502;SDS011;7853;52.186;5.948;2023-05-19T05:55:35;7.44;;;4.17;;
15502;SDS011;7853;52.186;5.948;2023-05-19T05:56:35;7.27;;;3.95;;
15502;SDS011;7853;52.186;5.948;2023-05-19T05:57:34;7.05;;;3.78;;
15502;SDS011;7853;52.186;5.948;2023-05-19T05:58:34;7.01;;;3.81;;
15502;SDS011;7853;52.186;5.948;2023-05-19T05:59:35;6.87;;;4.09;;
15502;SDS011;7853;52.186;5.948;2023-05-19T06:00:34;6.89;;;4.20;;
15502;SDS011;7853;52.186;5.948;2023-05-19T06:01:34;7.36;;;3.95;;
15502;SDS011;7853;52.186;5.948;2023-05-19T06:02:34;7.62;;;3.96;;
15502;SDS011;7853;52.186;5.948;2023-05-19T06:03:35;8.35;;;3.70;;
15502;SDS011;7853;52.186;5.948;2023-05-19T06:04:35;6.48;;;4.16;;
15502;SDS011;7853;52.186;5.948;2023-05-19T06:05:34;5.74;;;3.75;;
15502;SDS011;7853;52.186;5.948;2023-05-19T06:06:34;6.99;;;4.00;;
15502;SDS011;7853;52.186;5.948;2023-05-19T06:07:35;7.74;;;4.07;;
15502;SDS011;7853;52.186;5.948;2023-05-19T06:08:35;5.93;;;3.64;;
15502;SDS011;7853;52.186;5.948;2023-05-19T06:09:35;7.44;;;3.78;;
15502;SDS011;7853;52.186;5.948;2023-05-19T06:10:34;6.29;;;3.86;;